sensor_id;sensor_type;location;lat;lon;timestamp;P1;durP1;ratioP1;P2;durP2;ratioP2
17153;SDS011;8692;52.164;7.558;2023-05-25T00:00:49;7.33;;;3.80;;
17153;SDS011;8692;52.164;7.558;2023-05-25T00:03:31;4.80;;;2.80;;
17153;SDS011;8692;52.164;7.558;2023-05-25T00:06:00;4.73;;;2.87;;
17153;SDS011;8692;52.164;7.558;2023-05-25T00:08:28;5.93;;;3.43;;
17153;SDS011;8692;52.164;7.558;2023-05-25T00:10:56;3.97;;;2.53;;
17153;SDS011;8692;52.164;7.558;2023-05-25T00:13:27;6.33;;;3.37;;
17153;SDS011;8692;52.164;7.558;2023-05-25T00:15:56;5.37;;;3.33;;
17153;SDS011;8692;52.164;7.558;2023-05-25T00:18:24;6.83;;;4.03;;
17153;SDS011;8692;52.164;7.558;2023-05-25T00:20:56;5.43;;;3.30;;
17153;SDS011;8692;52.164;7.558;2023-05-25T00:23:24;5.23;;;2.57;;
17153;SDS011;8692;52.164;7.558;2023-05-25T00:25:55;5.17;;;2.87;;
17153;SDS011;8692;52.164;7.558;2023-05-25T00:28:23;6.00;;;3.20;;
17153;SDS011;8692;52.164;7.558;2023-05-25T00:30:51;7.03;;;3.70;;
17153;SDS011;8692;52.164;7.558;2023-05-25T00:33:22;4.33;;;3.10;;
17153;SDS011;8692;52.164;7.558;2023-05-25T00:35:52;7.57;;;3.80;;
17153;SDS011;8692;52.164;7.558;2023-05-25T00:38:21;8.37;;;3.87;;
17153;SDS011;8692;52.164;7.558;2023-05-25T00:40:53;5.43;;;3.70;;
17153;SDS011;8692;52.164;7.558;2023-05-25T00:43:22;6.20;;;3.50;;
17153;SDS011;8692;52.164;7.558;2023-05-25T00:45:51;5.17;;;3.40;;
17153;SDS011;8692;52.164;7.558;2023-05-25T00:48:20;4.80;;;3.53;;
17153;SDS011;8692;52.164;7.558;2023-05-25T00:50:49;4.00;;;3.20;;
17153;SDS011;8692;52.164;7.558;2023-05-25T00:53:26;7.70;;;3.40;;
17153;SDS011;8692;52.164;7.558;2023-05-25T00:55:58;8.00;;;3.40;;
17153;SDS011;8692;52.164;7.558;2023-05-25T00:58:32;5.87;;;3.37;;
17153;SDS011;8692;52.164;7.558;2023-05-25T01:01:05;4.03;;;2.77;;
17153;SDS011;8692;52.164;7.558;2023-05-25T01:03:40;4.77;;;3.30;;
17153;SDS011;8692;52.164;7.558;2023-05-25T01:06:14;5.60;;;3.30;;
17153;SDS011;8692;52.164;7.558;2023-05-25T01:08:48;6.23;;;3.53;;
17153;SDS011;8692;52.164;7.558;2023-05-25T01:11:18;6.53;;;3.50;;
17153;SDS011;8692;52.164;7.558;2023-05-25T01:13:55;5.80;;;3.53;;
17153;SDS011;8692;52.164;7.558;2023-05-25T01:16:25;6.47;;;3.90;;
17153;SDS011;8692;52.164;7.558;2023-05-25T01:18:54;3.90;;;3.30;;
17153;SDS011;8692;52.164;7.558;2023-05-25T01:21:28;5.20;;;3.50;;
17153;SDS011;8692;52.164;7.558;2023-05-25T01:24:05;5.97;;;3.57;;
17153;SDS011;8692;52.164;7.558;2023-05-25T01:26:51;5.07;;;3.27;;
17153;SDS011;8692;52.164;7.558;2023-05-25T01:29:24;5.87;;;3.10;;
17153;SDS011;8692;52.164;7.558;2023-05-25T01:31:54;4.93;;;3.17;;
17153;SDS011;8692;52.164;7.558;2023-05-25T01:34:24;3.70;;;3.20;;
17153;SDS011;8692;52.164;7.558;2023-05-25T01:36:56;3.90;;;2.80;;
17153;SDS011;8692;52.164;7.558;2023-05-25T01:39:27;6.70;;;3.53;;
17153;SDS011;8692;52.164;7.558;2023-05-25T01:41:55;5.70;;;3.20;;
17153;SDS011;8692;52.164;7.558;2023-05-25T01:44:23;5.53;;;3.93;;
17153;SDS011;8692;52.164;7.558;2023-05-25T01:46:57;4.10;;;3.13;;
17153;SDS011;8692;52.164;7.558;2023-05-25T01:49:31;5.63;;;3.50;;
17153;SDS011;8692;52.164;7.558;2023-05-25T01:52:14;6.33;;;3.33;;
17153;SDS011;8692;52.164;7.558;2023-05-25T01:54:46;3.53;;;2.63;;
17153;SDS011;8692;52.164;7.558;2023-05-25T01:57:22;3.67;;;3.20;;
17153;SDS011;8692;52.164;7.558;2023-05-25T01:59:52;4.03;;;3.27;;
17153;SDS011;8692;52.164;7.558;2023-05-25T02:02:28;5.93;;;3.70;;
17153;SDS011;8692;52.164;7.558;2023-05-25T02:05:00;5.83;;;3.27;;
17153;SDS011;8692;52.164;7.558;2023-05-25T02:07:32;5.60;;;3.23;;
17153;SDS011;8692;52.164;7.558;2023-05-25T02:10:00;5.70;;;3.60;;
17153;SDS011;8692;52.164;7.558;2023-05-25T02:12:28;5.17;;;3.60;;
17153;SDS011;8692;52.164;7.558;2023-05-25T02:14:59;4.27;;;3.33;;
17153;SDS011;8692;52.164;7.558;2023-05-25T02:17:29;3.57;;;3.00;;
17153;SDS011;8692;52.164;7.558;2023-05-25T02:19:59;6.07;;;3.40;;
17153;SDS011;8692;52.164;7.558;2023-05-25T02:22:28;4.87;;;3.20;;
17153;SDS011;8692;52.164;7.558;2023-05-25T02:24:58;7.00;;;3.60;;
17153;SDS011;8692;52.164;7.558;2023-05-25T02:27:28;6.80;;;4.03;;
17153;SDS011;8692;52.164;7.558;2023-05-25T02:29:59;6.63;;;3.77;;
17153;SDS011;8692;52.164;7.558;2023-05-25T02:32:28;6.43;;;4.00;;
17153;SDS011;8692;52.164;7.558;2023-05-25T02:34:57;6.67;;;3.40;;
17153;SDS011;8692;52.164;7.558;2023-05-25T02:37:26;5.03;;;3.60;;
17153;SDS011;8692;52.164;7.558;2023-05-25T02:39:54;5.03;;;3.57;;
17153;SDS011;8692;52.164;7.558;2023-05-25T02:42:26;6.50;;;3.80;;
17153;SDS011;8692;52.164;7.558;2023-05-25T02:44:54;6.93;;;4.00;;
17153;SDS011;8692;52.164;7.558;2023-05-25T02:47:24;8.07;;;4.30;;
17153;SDS011;8692;52.164;7.558;2023-05-25T02:49:53;6.10;;;4.10;;
17153;SDS011;8692;52.164;7.558;2023-05-25T02:52:21;5.13;;;3.67;;
17153;SDS011;8692;52.164;7.558;2023-05-25T02:54:51;5.47;;;3.60;;
17153;SDS011;8692;52.164;7.558;2023-05-25T02:57:28;5.73;;;3.50;;
17153;SDS011;8692;52.164;7.558;2023-05-25T02:59:58;6.57;;;4.40;;
17153;SDS011;8692;52.164;7.558;2023-05-25T03:02:29;10.13;;;4.80;;
17153;SDS011;8692;52.164;7.558;2023-05-25T03:04:58;7.00;;;3.90;;
17153;SDS011;8692;52.164;7.558;2023-05-25T03:07:30;8.10;;;3.83;;
17153;SDS011;8692;52.164;7.558;2023-05-25T03:09:58;4.37;;;3.50;;
17153;SDS011;8692;52.164;7.558;2023-05-25T03:12:28;5.20;;;3.37;;
17153;SDS011;8692;52.164;7.558;2023-05-25T03:14:56;5.50;;;3.77;;
17153;SDS011;8692;52.164;7.558;2023-05-25T03:17:24;5.73;;;4.13;;
17153;SDS011;8692;52.164;7.558;2023-05-25T03:19:55;5.67;;;3.83;;
17153;SDS011;8692;52.164;7.558;2023-05-25T03:22:25;5.47;;;3.67;;
17153;SDS011;8692;52.164;7.558;2023-05-25T03:24:53;5.60;;;3.87;;
17153;SDS011;8692;52.164;7.558;2023-05-25T03:27:21;7.53;;;4.37;;
17153;SDS011;8692;52.164;7.558;2023-05-25T03:29:54;5.23;;;3.90;;
17153;SDS011;8692;52.164;7.558;2023-05-25T03:32:23;5.43;;;4.60;;
17153;SDS011;8692;52.164;7.558;2023-05-25T03:34:51;5.10;;;3.50;;
17153;SDS011;8692;52.164;7.558;2023-05-25T03:37:19;8.57;;;4.10;;
17153;SDS011;8692;52.164;7.558;2023-05-25T03:39:47;5.23;;;3.70;;
17153;SDS011;8692;52.164;7.558;2023-05-25T03:42:15;6.40;;;3.83;;
17153;SDS011;8692;52.164;7.558;2023-05-25T03:44:46;10.00;;;5.60;;
17153;SDS011;8692;52.164;7.558;2023-05-25T03:47:16;5.53;;;4.20;;
17153;SDS011;8692;52.164;7.558;2023-05-25T03:49:46;7.27;;;4.70;;
17153;SDS011;8692;52.164;7.558;2023-05-25T03:52:17;8.97;;;5.17;;
17153;SDS011;8692;52.164;7.558;2023-05-25T03:54:45;10.03;;;4.90;;
17153;SDS011;8692;52.164;7.558;2023-05-25T03:57:13;5.83;;;4.50;;
17153;SDS011;8692;52.164;7.558;2023-05-25T03:59:42;7.57;;;4.27;;
17153;SDS011;8692;52.164;7.558;2023-05-25T04:02:10;6.10;;;4.20;;
17153;SDS011;8692;52.164;7.558;2023-05-25T04:04:39;6.83;;;4.20;;
17153;SDS011;8692;52.164;7.558;2023-05-25T04:07:11;7.87;;;3.80;;
17153;SDS011;8692;52.164;7.558;2023-05-25T04:09:39;7.53;;;4.47;;
17153;SDS011;8692;52.164;7.558;2023-05-25T04:12:07;7.50;;;4.00;;
17153;SDS011;8692;52.164;7.558;2023-05-25T04:14:36;9.07;;;4.23;;
17153;SDS011;8692;52.164;7.558;2023-05-25T04:17:07;6.33;;;4.57;;
17153;SDS011;8692;52.164;7.558;2023-05-25T04:19:35;5.97;;;4.50;;
17153;SDS011;8692;52.164;7.558;2023-05-25T04:22:07;9.10;;;4.53;;
17153;SDS011;8692;52.164;7.558;2023-05-25T04:24:35;7.37;;;4.40;;
17153;SDS011;8692;52.164;7.558;2023-05-25T04:27:04;10.93;;;5.13;;
17153;SDS011;8692;52.164;7.558;2023-05-25T04:29:32;6.97;;;4.20;;
17153;SDS011;8692;52.164;7.558;2023-05-25T04:32:26;8.10;;;4.87;;
17153;SDS011;8692;52.164;7.558;2023-05-25T04:35:35;8.10;;;5.10;;
17153;SDS011;8692;52.164;7.558;2023-05-25T04:38:07;7.07;;;4.50;;
17153;SDS011;8692;52.164;7.558;2023-05-25T04:40:41;9.77;;;5.37;;
17153;SDS011;8692;52.164;7.558;2023-05-25T04:43:09;8.63;;;4.60;;
17153;SDS011;8692;52.164;7.558;2023-05-25T04:45:39;4.70;;;3.80;;
17153;SDS011;8692;52.164;7.558;2023-05-25T04:48:08;8.33;;;3.83;;
17153;SDS011;8692;52.164;7.558;2023-05-25T04:50:36;5.63;;;4.27;;
17153;SDS011;8692;52.164;7.558;2023-05-25T04:53:07;6.73;;;3.67;;
17153;SDS011;8692;52.164;7.558;2023-05-25T04:55:36;6.93;;;3.40;;
17153;SDS011;8692;52.164;7.558;2023-05-25T04:58:07;4.60;;;3.80;;
17153;SDS011;8692;52.164;7.558;2023-05-25T05:00:37;6.03;;;3.80;;
17153;SDS011;8692;52.164;7.558;2023-05-25T05:03:06;6.30;;;3.87;;
17153;SDS011;8692;52.164;7.558;2023-05-25T05:05:37;7.20;;;4.50;;
17153;SDS011;8692;52.164;7.558;2023-05-25T05:08:11;7.47;;;4.50;;
17153;SDS011;8692;52.164;7.558;2023-05-25T05:10:40;6.70;;;3.83;;
17153;SDS011;8692;52.164;7.558;2023-05-25T05:13:08;7.83;;;5.00;;
17153;SDS011;8692;52.164;7.558;2023-05-25T05:15:37;9.47;;;5.03;;
17153;SDS011;8692;52.164;7.558;2023-05-25T05:18:08;8.00;;;4.70;;
17153;SDS011;8692;52.164;7.558;2023-05-25T05:20:36;8.03;;;5.00;;
17153;SDS011;8692;52.164;7.558;2023-05-25T05:23:04;8.80;;;5.57;;
17153;SDS011;8692;52.164;7.558;2023-05-25T05:25:37;8.37;;;4.97;;
17153;SDS011;8692;52.164;7.558;2023-05-25T05:28:05;8.82;;;6.30;;
17153;SDS011;8692;52.164;7.558;2023-05-25T05:30:38;9.80;;;5.93;;
17153;SDS011;8692;52.164;7.558;2023-05-25T05:33:06;9.87;;;5.43;;
17153;SDS011;8692;52.164;7.558;2023-05-25T05:35:42;9.20;;;5.37;;
17153;SDS011;8692;52.164;7.558;2023-05-25T05:38:16;9.73;;;5.50;;
17153;SDS011;8692;52.164;7.558;2023-05-25T05:40:48;9.10;;;5.50;;
17153;SDS011;8692;52.164;7.558;2023-05-25T05:43:21;8.57;;;6.27;;
17153;SDS011;8692;52.164;7.558;2023-05-25T05:45:49;11.13;;;5.63;;
17153;SDS011;8692;52.164;7.558;2023-05-25T05:48:18;11.50;;;5.83;;
17153;SDS011;8692;52.164;7.558;2023-05-25T05:50:49;10.63;;;5.10;;
17153;SDS011;8692;52.164;7.558;2023-05-25T05:53:18;10.77;;;5.73;;
17153;SDS011;8692;52.164;7.558;2023-05-25T05:55:46;11.10;;;6.00;;
17153;SDS011;8692;52.164;7.558;2023-05-25T05:58:22;13.30;;;6.30;;
17153;SDS011;8692;52.164;7.558;2023-05-25T06:00:52;13.47;;;6.73;;
17153;SDS011;8692;52.164;7.558;2023-05-25T06:03:24;12.50;;;5.90;;
17153;SDS011;8692;52.164;7.558;2023-05-25T06:05:54;9.30;;;5.60;;
17153;SDS011;8692;52.164;7.558;2023-05-25T06:08:22;9.50;;;6.13;;
17153;SDS011;8692;52.164;7.558;2023-05-25T06:10:52;10.17;;;6.60;;
17153;SDS011;8692;52.164;7.558;2023-05-25T06:13:21;14.50;;;6.53;;
17153;SDS011;8692;52.164;7.558;2023-05-25T06:15:50;12.73;;;7.33;;
17153;SDS011;8692;52.164;7.558;2023-05-25T06:18:21;12.97;;;6.77;;
17153;SDS011;8692;52.164;7.558;2023-05-25T06:20:50;12.17;;;7.10;;
17153;SDS011;8692;52.164;7.558;2023-05-25T06:23:18;12.63;;;6.83;;
17153;SDS011;8692;52.164;7.558;2023-05-25T06:25:50;14.60;;;6.93;;
17153;SDS011;8692;52.164;7.558;2023-05-25T06:28:20;13.67;;;6.73;;
17153;SDS011;8692;52.164;7.558;2023-05-25T06:30:48;10.93;;;6.50;;
17153;SDS011;8692;52.164;7.558;2023-05-25T06:33:17;10.87;;;6.43;;
17153;SDS011;8692;52.164;7.558;2023-05-25T06:35:45;12.20;;;7.13;;
17153;SDS011;8692;52.164;7.558;2023-05-25T06:38:14;13.40;;;6.83;;
17153;SDS011;8692;52.164;7.558;2023-05-25T06:40:42;13.17;;;6.50;;
17153;SDS011;8692;52.164;7.558;2023-05-25T06:43:11;13.77;;;7.43;;
17153;SDS011;8692;52.164;7.558;2023-05-25T06:45:52;14.67;;;6.37;;
17153;SDS011;8692;52.164;7.558;2023-05-25T06:48:20;11.57;;;6.60;;
17153;SDS011;8692;52.164;7.558;2023-05-25T06:50:48;14.50;;;6.10;;
17153;SDS011;8692;52.164;7.558;2023-05-25T06:53:17;11.57;;;6.60;;
17153;SDS011;8692;52.164;7.558;2023-05-25T06:55:47;14.77;;;6.77;;
17153;SDS011;8692;52.164;7.558;2023-05-25T06:58:17;10.50;;;6.20;;
17153;SDS011;8692;52.164;7.558;2023-05-25T07:00:45;11.87;;;6.17;;
17153;SDS011;8692;52.164;7.558;2023-05-25T07:03:16;12.87;;;6.60;;
17153;SDS011;8692;52.164;7.558;2023-05-25T07:05:44;13.03;;;6.53;;
17153;SDS011;8692;52.164;7.558;2023-05-25T07:08:12;9.70;;;5.80;;
17153;SDS011;8692;52.164;7.558;2023-05-25T07:10:40;13.23;;;7.10;;
17153;SDS011;8692;52.164;7.558;2023-05-25T07:13:11;12.63;;;6.47;;
17153;SDS011;8692;52.164;7.558;2023-05-25T07:15:41;11.33;;;6.70;;
17153;SDS011;8692;52.164;7.558;2023-05-25T07:18:10;10.83;;;6.67;;
17153;SDS011;8692;52.164;7.558;2023-05-25T07:20:38;12.30;;;7.00;;
17153;SDS011;8692;52.164;7.558;2023-05-25T07:23:09;12.97;;;5.67;;
17153;SDS011;8692;52.164;7.558;2023-05-25T07:25:38;15.20;;;7.63;;
17153;SDS011;8692;52.164;7.558;2023-05-25T07:28:07;11.87;;;6.43;;
17153;SDS011;8692;52.164;7.558;2023-05-25T07:30:38;15.57;;;7.07;;
17153;SDS011;8692;52.164;7.558;2023-05-25T07:33:08;12.77;;;6.43;;
17153;SDS011;8692;52.164;7.558;2023-05-25T07:35:54;14.93;;;6.77;;
17153;SDS011;8692;52.164;7.558;2023-05-25T07:38:22;14.80;;;7.10;;
17153;SDS011;8692;52.164;7.558;2023-05-25T07:40:50;10.70;;;6.43;;
17153;SDS011;8692;52.164;7.558;2023-05-25T07:43:20;15.07;;;7.40;;
17153;SDS011;8692;52.164;7.558;2023-05-25T07:45:49;18.57;;;6.37;;
17153;SDS011;8692;52.164;7.558;2023-05-25T07:48:18;11.73;;;6.83;;
17153;SDS011;8692;52.164;7.558;2023-05-25T07:50:48;13.00;;;6.27;;
17153;SDS011;8692;52.164;7.558;2023-05-25T07:53:17;11.03;;;6.10;;
17153;SDS011;8692;52.164;7.558;2023-05-25T07:55:48;11.90;;;6.37;;
17153;SDS011;8692;52.164;7.558;2023-05-25T07:58:20;11.53;;;6.97;;
17153;SDS011;8692;52.164;7.558;2023-05-25T08:00:51;9.30;;;5.87;;
17153;SDS011;8692;52.164;7.558;2023-05-25T08:03:20;11.63;;;5.60;;
17153;SDS011;8692;52.164;7.558;2023-05-25T08:06:01;10.70;;;6.00;;
17153;SDS011;8692;52.164;7.558;2023-05-25T08:08:31;13.83;;;5.80;;
17153;SDS011;8692;52.164;7.558;2023-05-25T08:11:01;10.37;;;5.80;;
17153;SDS011;8692;52.164;7.558;2023-05-25T08:13:32;10.50;;;5.40;;
17153;SDS011;8692;52.164;7.558;2023-05-25T08:16:02;12.43;;;5.40;;
17153;SDS011;8692;52.164;7.558;2023-05-25T08:18:32;13.50;;;5.83;;
17153;SDS011;8692;52.164;7.558;2023-05-25T08:21:01;11.57;;;6.13;;
17153;SDS011;8692;52.164;7.558;2023-05-25T08:23:31;10.10;;;5.83;;
17153;SDS011;8692;52.164;7.558;2023-05-25T08:26:03;8.77;;;4.33;;
17153;SDS011;8692;52.164;7.558;2023-05-25T08:28:53;11.93;;;4.67;;
17153;SDS011;8692;52.164;7.558;2023-05-25T08:31:22;12.90;;;5.20;;
17153;SDS011;8692;52.164;7.558;2023-05-25T08:33:52;14.00;;;5.40;;
17153;SDS011;8692;52.164;7.558;2023-05-25T08:36:23;11.20;;;5.27;;
17153;SDS011;8692;52.164;7.558;2023-05-25T08:38:54;11.77;;;4.93;;
17153;SDS011;8692;52.164;7.558;2023-05-25T08:41:25;10.60;;;4.80;;
17153;SDS011;8692;52.164;7.558;2023-05-25T08:43:53;8.67;;;4.67;;
17153;SDS011;8692;52.164;7.558;2023-05-25T08:46:26;11.97;;;4.33;;
17153;SDS011;8692;52.164;7.558;2023-05-25T08:49:04;8.83;;;4.70;;
17153;SDS011;8692;52.164;7.558;2023-05-25T08:51:36;7.80;;;4.03;;
17153;SDS011;8692;52.164;7.558;2023-05-25T08:54:06;10.23;;;4.13;;
17153;SDS011;8692;52.164;7.558;2023-05-25T08:56:40;8.57;;;4.50;;
17153;SDS011;8692;52.164;7.558;2023-05-25T08:59:16;8.50;;;4.20;;
17153;SDS011;8692;52.164;7.558;2023-05-25T09:01:55;8.43;;;3.87;;
17153;SDS011;8692;52.164;7.558;2023-05-25T09:04:33;8.30;;;4.60;;
17153;SDS011;8692;52.164;7.558;2023-05-25T09:07:04;6.80;;;3.83;;
17153;SDS011;8692;52.164;7.558;2023-05-25T09:09:36;9.87;;;3.80;;
17153;SDS011;8692;52.164;7.558;2023-05-25T09:12:06;7.23;;;3.27;;
17153;SDS011;8692;52.164;7.558;2023-05-25T09:14:35;6.97;;;3.73;;
17153;SDS011;8692;52.164;7.558;2023-05-25T09:17:11;8.50;;;3.60;;
17153;SDS011;8692;52.164;7.558;2023-05-25T09:19:41;7.17;;;3.37;;
17153;SDS011;8692;52.164;7.558;2023-05-25T09:22:09;7.50;;;3.73;;
17153;SDS011;8692;52.164;7.558;2023-05-25T09:24:42;6.67;;;3.20;;
17153;SDS011;8692;52.164;7.558;2023-05-25T09:27:15;7.60;;;3.80;;
17153;SDS011;8692;52.164;7.558;2023-05-25T09:29:45;6.03;;;3.30;;
17153;SDS011;8692;52.164;7.558;2023-05-25T09:32:17;8.23;;;3.50;;
17153;SDS011;8692;52.164;7.558;2023-05-25T09:34:47;6.40;;;3.17;;
17153;SDS011;8692;52.164;7.558;2023-05-25T09:37:16;6.40;;;3.30;;
17153;SDS011;8692;52.164;7.558;2023-05-25T09:39:45;5.43;;;3.40;;
17153;SDS011;8692;52.164;7.558;2023-05-25T09:42:15;5.70;;;3.10;;
17153;SDS011;8692;52.164;7.558;2023-05-25T09:44:46;6.43;;;3.43;;
17153;SDS011;8692;52.164;7.558;2023-05-25T09:47:14;5.80;;;3.20;;
17153;SDS011;8692;52.164;7.558;2023-05-25T09:49:43;6.80;;;3.37;;
17153;SDS011;8692;52.164;7.558;2023-05-25T09:52:16;7.57;;;3.20;;
17153;SDS011;8692;52.164;7.558;2023-05-25T09:54:44;10.60;;;3.87;;
17153;SDS011;8692;52.164;7.558;2023-05-25T09:57:15;6.20;;;3.07;;
17153;SDS011;8692;52.164;7.558;2023-05-25T09:59:47;8.67;;;3.83;;
17153;SDS011;8692;52.164;7.558;2023-05-25T10:02:15;6.37;;;3.13;;
17153;SDS011;8692;52.164;7.558;2023-05-25T10:04:44;10.57;;;4.13;;
17153;SDS011;8692;52.164;7.558;2023-05-25T10:07:16;8.83;;;3.73;;
17153;SDS011;8692;52.164;7.558;2023-05-25T10:09:47;7.03;;;3.30;;
17153;SDS011;8692;52.164;7.558;2023-05-25T10:12:22;8.10;;;4.00;;
17153;SDS011;8692;52.164;7.558;2023-05-25T10:14:51;8.00;;;3.37;;
17153;SDS011;8692;52.164;7.558;2023-05-25T10:17:23;8.70;;;3.53;;
17153;SDS011;8692;52.164;7.558;2023-05-25T10:19:58;10.57;;;3.47;;
17153;SDS011;8692;52.164;7.558;2023-05-25T10:22:31;6.70;;;2.80;;
17153;SDS011;8692;52.164;7.558;2023-05-25T10:25:07;5.37;;;2.70;;
17153;SDS011;8692;52.164;7.558;2023-05-25T10:27:41;10.27;;;3.47;;
17153;SDS011;8692;52.164;7.558;2023-05-25T10:30:16;6.40;;;3.43;;
17153;SDS011;8692;52.164;7.558;2023-05-25T10:32:45;8.13;;;3.03;;
17153;SDS011;8692;52.164;7.558;2023-05-25T10:35:14;9.27;;;3.10;;
17153;SDS011;8692;52.164;7.558;2023-05-25T10:37:47;7.93;;;3.00;;
17153;SDS011;8692;52.164;7.558;2023-05-25T10:40:21;8.33;;;3.87;;
17153;SDS011;8692;52.164;7.558;2023-05-25T10:42:49;6.33;;;3.47;;
17153;SDS011;8692;52.164;7.558;2023-05-25T10:45:18;6.17;;;3.57;;
17153;SDS011;8692;52.164;7.558;2023-05-25T10:47:49;8.70;;;3.00;;
17153;SDS011;8692;52.164;7.558;2023-05-25T10:50:18;5.93;;;3.17;;
17153;SDS011;8692;52.164;7.558;2023-05-25T10:52:58;9.50;;;3.33;;
17153;SDS011;8692;52.164;7.558;2023-05-25T10:55:27;9.07;;;3.47;;
17153;SDS011;8692;52.164;7.558;2023-05-25T10:58:09;6.57;;;3.07;;
17153;SDS011;8692;52.164;7.558;2023-05-25T11:00:41;8.17;;;2.93;;
17153;SDS011;8692;52.164;7.558;2023-05-25T11:06:17;9.67;;;4.03;;
17153;SDS011;8692;52.164;7.558;2023-05-25T11:08:48;8.83;;;3.23;;
17153;SDS011;8692;52.164;7.558;2023-05-25T11:11:20;8.63;;;3.73;;
17153;SDS011;8692;52.164;7.558;2023-05-25T11:13:49;9.03;;;3.53;;
17153;SDS011;8692;52.164;7.558;2023-05-25T11:16:18;10.57;;;4.60;;
17153;SDS011;8692;52.164;7.558;2023-05-25T11:18:51;10.37;;;3.53;;
17153;SDS011;8692;52.164;7.558;2023-05-25T11:21:21;8.73;;;3.47;;
17153;SDS011;8692;52.164;7.558;2023-05-25T11:24:12;10.67;;;3.80;;
17153;SDS011;8692;52.164;7.558;2023-05-25T11:26:52;9.17;;;3.90;;
17153;SDS011;8692;52.164;7.558;2023-05-25T11:29:25;9.07;;;3.40;;
17153;SDS011;8692;52.164;7.558;2023-05-25T11:32:00;6.97;;;3.23;;
17153;SDS011;8692;52.164;7.558;2023-05-25T11:34:29;7.23;;;3.13;;
17153;SDS011;8692;52.164;7.558;2023-05-25T11:36:58;9.70;;;3.57;;
17153;SDS011;8692;52.164;7.558;2023-05-25T11:39:34;9.20;;;3.57;;
17153;SDS011;8692;52.164;7.558;2023-05-25T11:42:03;8.67;;;3.20;;
17153;SDS011;8692;52.164;7.558;2023-05-25T11:44:34;8.90;;;3.40;;
17153;SDS011;8692;52.164;7.558;2023-05-25T11:47:04;10.17;;;3.53;;
17153;SDS011;8692;52.164;7.558;2023-05-25T11:49:37;7.53;;;3.10;;
17153;SDS011;8692;52.164;7.558;2023-05-25T11:52:07;8.57;;;3.63;;
17153;SDS011;8692;52.164;7.558;2023-05-25T11:54:39;6.13;;;2.80;;
17153;SDS011;8692;52.164;7.558;2023-05-25T11:57:14;8.13;;;3.10;;
17153;SDS011;8692;52.164;7.558;2023-05-25T11:59:47;7.23;;;3.03;;
17153;SDS011;8692;52.164;7.558;2023-05-25T12:02:16;9.10;;;3.50;;
17153;SDS011;8692;52.164;7.558;2023-05-25T12:04:53;11.10;;;3.63;;
17153;SDS011;8692;52.164;7.558;2023-05-25T12:07:22;7.53;;;2.90;;
17153;SDS011;8692;52.164;7.558;2023-05-25T12:09:57;8.53;;;3.37;;
17153;SDS011;8692;52.164;7.558;2023-05-25T12:12:36;8.90;;;3.30;;
17153;SDS011;8692;52.164;7.558;2023-05-25T12:15:07;9.57;;;3.23;;
17153;SDS011;8692;52.164;7.558;2023-05-25T12:17:37;12.67;;;4.07;;
17153;SDS011;8692;52.164;7.558;2023-05-25T12:20:11;13.17;;;3.87;;
17153;SDS011;8692;52.164;7.558;2023-05-25T12:22:41;8.67;;;3.37;;
17153;SDS011;8692;52.164;7.558;2023-05-25T12:25:12;10.43;;;3.10;;
17153;SDS011;8692;52.164;7.558;2023-05-25T12:27:43;8.63;;;3.40;;
17153;SDS011;8692;52.164;7.558;2023-05-25T12:30:12;10.90;;;3.60;;
17153;SDS011;8692;52.164;7.558;2023-05-25T12:32:52;11.47;;;3.27;;
17153;SDS011;8692;52.164;7.558;2023-05-25T12:35:21;12.80;;;3.43;;
17153;SDS011;8692;52.164;7.558;2023-05-25T12:37:49;9.17;;;3.37;;
17153;SDS011;8692;52.164;7.558;2023-05-25T12:40:36;10.10;;;3.60;;
17153;SDS011;8692;52.164;7.558;2023-05-25T12:43:05;8.83;;;3.77;;
17153;SDS011;8692;52.164;7.558;2023-05-25T12:45:38;8.20;;;3.20;;
17153;SDS011;8692;52.164;7.558;2023-05-25T12:48:09;8.60;;;3.43;;
17153;SDS011;8692;52.164;7.558;2023-05-25T12:53:23;8.07;;;3.23;;
17153;SDS011;8692;52.164;7.558;2023-05-25T12:56:02;10.70;;;3.53;;
17153;SDS011;8692;52.164;7.558;2023-05-25T12:58:34;9.00;;;3.13;;
17153;SDS011;8692;52.164;7.558;2023-05-25T13:01:06;10.63;;;3.63;;
17153;SDS011;8692;52.164;7.558;2023-05-25T13:03:37;7.03;;;3.30;;
17153;SDS011;8692;52.164;7.558;2023-05-25T13:06:07;8.87;;;3.23;;
17153;SDS011;8692;52.164;7.558;2023-05-25T13:08:35;9.80;;;3.30;;
17153;SDS011;8692;52.164;7.558;2023-05-25T13:11:05;9.17;;;3.70;;
17153;SDS011;8692;52.164;7.558;2023-05-25T13:13:33;11.37;;;3.97;;
17153;SDS011;8692;52.164;7.558;2023-05-25T13:16:05;9.93;;;3.60;;
17153;SDS011;8692;52.164;7.558;2023-05-25T13:18:33;12.57;;;3.50;;
17153;SDS011;8692;52.164;7.558;2023-05-25T13:21:02;14.37;;;4.27;;
17153;SDS011;8692;52.164;7.558;2023-05-25T13:23:30;7.97;;;3.43;;
17153;SDS011;8692;52.164;7.558;2023-05-25T13:25:58;10.07;;;3.87;;
17153;SDS011;8692;52.164;7.558;2023-05-25T13:28:30;13.77;;;4.40;;
17153;SDS011;8692;52.164;7.558;2023-05-25T13:30:58;11.70;;;4.07;;
17153;SDS011;8692;52.164;7.558;2023-05-25T13:33:26;12.87;;;4.37;;
17153;SDS011;8692;52.164;7.558;2023-05-25T13:35:54;13.53;;;4.43;;
17153;SDS011;8692;52.164;7.558;2023-05-25T13:38:36;11.30;;;4.17;;
17153;SDS011;8692;52.164;7.558;2023-05-25T13:41:07;16.40;;;4.60;;
17153;SDS011;8692;52.164;7.558;2023-05-25T13:43:37;11.13;;;3.80;;
17153;SDS011;8692;52.164;7.558;2023-05-25T13:46:05;16.53;;;4.30;;
17153;SDS011;8692;52.164;7.558;2023-05-25T13:48:43;13.77;;;4.67;;
17153;SDS011;8692;52.164;7.558;2023-05-25T13:51:13;15.80;;;4.43;;
17153;SDS011;8692;52.164;7.558;2023-05-25T13:53:42;10.30;;;3.97;;
17153;SDS011;8692;52.164;7.558;2023-05-25T13:56:10;16.23;;;4.63;;
17153;SDS011;8692;52.164;7.558;2023-05-25T13:58:40;11.90;;;4.17;;
17153;SDS011;8692;52.164;7.558;2023-05-25T14:01:10;14.37;;;4.67;;
17153;SDS011;8692;52.164;7.558;2023-05-25T14:03:39;13.17;;;4.60;;
17153;SDS011;8692;52.164;7.558;2023-05-25T14:06:07;10.63;;;4.17;;
17153;SDS011;8692;52.164;7.558;2023-05-25T14:08:35;8.30;;;3.43;;
17153;SDS011;8692;52.164;7.558;2023-05-25T14:11:03;13.23;;;4.50;;
17153;SDS011;8692;52.164;7.558;2023-05-25T14:13:35;13.13;;;4.47;;
17153;SDS011;8692;52.164;7.558;2023-05-25T14:16:05;11.73;;;4.37;;
17153;SDS011;8692;52.164;7.558;2023-05-25T14:18:34;12.30;;;4.47;;
17153;SDS011;8692;52.164;7.558;2023-05-25T14:21:03;15.47;;;3.83;;
17153;SDS011;8692;52.164;7.558;2023-05-25T14:23:31;13.90;;;4.97;;
17153;SDS011;8692;52.164;7.558;2023-05-25T14:26:01;9.63;;;3.77;;
17153;SDS011;8692;52.164;7.558;2023-05-25T14:28:32;11.13;;;3.73;;
17153;SDS011;8692;52.164;7.558;2023-05-25T14:31:00;10.97;;;4.10;;
17153;SDS011;8692;52.164;7.558;2023-05-25T14:33:32;13.17;;;4.13;;
17153;SDS011;8692;52.164;7.558;2023-05-25T14:36:01;15.53;;;4.20;;
17153;SDS011;8692;52.164;7.558;2023-05-25T14:38:32;15.70;;;4.77;;
17153;SDS011;8692;52.164;7.558;2023-05-25T14:41:03;12.67;;;4.20;;
17153;SDS011;8692;52.164;7.558;2023-05-25T14:43:31;12.23;;;4.43;;
17153;SDS011;8692;52.164;7.558;2023-05-25T14:46:00;12.57;;;4.87;;
17153;SDS011;8692;52.164;7.558;2023-05-25T14:48:28;12.43;;;4.20;;
17153;SDS011;8692;52.164;7.558;2023-05-25T14:50:58;12.63;;;4.13;;
17153;SDS011;8692;52.164;7.558;2023-05-25T14:53:28;7.97;;;3.53;;
17153;SDS011;8692;52.164;7.558;2023-05-25T14:55:56;12.67;;;5.07;;
17153;SDS011;8692;52.164;7.558;2023-05-25T14:58:24;15.50;;;4.37;;
17153;SDS011;8692;52.164;7.558;2023-05-25T15:00:54;10.43;;;3.70;;
17153;SDS011;8692;52.164;7.558;2023-05-25T15:03:25;15.40;;;4.83;;
17153;SDS011;8692;52.164;7.558;2023-05-25T15:05:53;14.00;;;4.93;;
17153;SDS011;8692;52.164;7.558;2023-05-25T15:08:25;10.90;;;3.90;;
17153;SDS011;8692;52.164;7.558;2023-05-25T15:10:53;13.13;;;4.40;;
17153;SDS011;8692;52.164;7.558;2023-05-25T15:13:24;13.73;;;4.23;;
17153;SDS011;8692;52.164;7.558;2023-05-25T15:15:55;13.00;;;4.57;;
17153;SDS011;8692;52.164;7.558;2023-05-25T15:18:25;11.10;;;4.33;;
17153;SDS011;8692;52.164;7.558;2023-05-25T15:20:56;11.43;;;4.10;;
17153;SDS011;8692;52.164;7.558;2023-05-25T15:23:29;17.03;;;5.43;;